Hurricane, WV

5:22 PM EDT on August 26, 2016 (GMT -0400)
KWVHURRI2 | | Change Station

Elev 679 ft 38.44 °N, 81.97 °W | Updated 21 seconds ago

Scattered Clouds
Scattered Clouds
91.2 °F
Feels Like 103 °F
N
1.0
Wind Variable Wind from East
Gusts 3.0 mph

Today
High -- | Low -- °F
--% Chance of Precip.
Yesterday
High -- | Low -- °F
Precip. -- in
Pressure 30.07 in
Visibility 10.0 miles
Clouds Scattered Clouds 4700 ft
Heat Index 103 °F
Dew Point 76 °F
Humidity 61%
Rainfall 0.00 in
Snow Depth Not available.
6:52 AM 8:06 PM
Waning Crescent, 31% visible
METAR KCRW 262054Z 02003KT 10SM SCT047 32/21 A3010 RMK AO2 SLP181 T03220206 56013 $
Pressure 30.07 in
Visibility 10.0 miles
Clouds Scattered Clouds 4700 ft
Heat Index 103 °F
Dew Point 76 °F
Humidity 61%
Rainfall 0.00 in
Snow Depth Not available.
6:52 AM 8:06 PM
Waning Crescent, 31% visible
METAR KCRW 262054Z 02003KT 10SM SCT047 32/21 A3010 RMK AO2 SLP181 T03220206 56013 $

10-Day Weather Forecast

Almanac

Astronomy

Aug. 26, 2016 Rise Set
Actual Time
Civil Twilight
Nautical Twilight
Astronomical Twilight
Moon
Length of Visible Light
Length of Day
Tomorrow will be .
, % of the Moon is Illuminated

Today's Extremes

State Highs State Lows

Community

WunderPhotos

Upload Photos

1,935,206 photos uploaded!

WunderBlog® & News

Nearby

Air Quality

  Air Quality AQ Index Pollutant
Not available.

Snow Depth

Station Depth Elevation

Earthquake Activity

City Distance Mag. Time & Date
Minimum magnitude displayed is 2.5.

Coastal Water Temperatures

Place Temperature

Stations

Nearby Weather Stations

Station Location Temp. Windchill Dew Point Humidity Wind Precip. Elev Updated Type
                   

Watches & Warnings

There are currently no watches in effect.